createdAt,value
2017-12-21T17:09:35.119Z,972.73
2017-12-21T17:10:35.111Z,972.74
2017-12-21T17:11:35.104Z,972.76
2017-12-21T17:12:35.100Z,972.78
2017-12-21T17:13:35.131Z,972.84
2017-12-21T17:14:35.093Z,972.84
2017-12-21T17:15:35.106Z,972.84
2017-12-21T17:16:35.089Z,972.81
2017-12-21T17:17:35.094Z,972.87
2017-12-21T17:18:35.087Z,972.93
2017-12-21T17:19:35.086Z,972.95
2017-12-21T17:20:35.088Z,972.97
2017-12-21T17:21:35.088Z,972.99
2017-12-21T17:22:35.088Z,972.96
2017-12-21T17:23:35.088Z,972.99
2017-12-21T17:24:35.089Z,973.03
2017-12-21T17:25:35.103Z,973.06
2017-12-21T17:26:35.092Z,973.09
2017-12-21T17:27:35.091Z,973.09
2017-12-21T17:28:35.099Z,973.12
2017-12-21T17:29:35.098Z,973.13
2017-12-21T17:30:35.102Z,973.17
2017-12-21T17:31:35.098Z,973.14
2017-12-21T17:32:35.102Z,973.20
2017-12-21T17:33:35.117Z,973.27
2017-12-21T17:34:35.108Z,973.27
2017-12-21T17:35:35.109Z,973.22
2017-12-21T17:36:35.110Z,973.24
2017-12-21T17:37:35.115Z,973.26
2017-12-21T17:38:35.122Z,973.24
2017-12-21T17:39:35.118Z,973.25
2017-12-21T17:40:35.126Z,973.38
2017-12-21T17:41:35.124Z,973.41
2017-12-21T17:42:35.127Z,973.41
2017-12-21T17:43:35.127Z,973.37
2017-12-21T17:44:35.133Z,973.39
2017-12-21T17:45:35.133Z,973.36
2017-12-21T17:46:35.136Z,973.38
2017-12-21T17:47:35.139Z,973.39
2017-12-21T17:48:35.140Z,973.38
2017-12-21T17:49:35.143Z,973.37
2017-12-21T17:50:35.146Z,973.34
2017-12-21T17:51:35.147Z,973.35
2017-12-21T17:52:35.152Z,973.33
2017-12-21T17:53:35.154Z,973.33
2017-12-21T17:54:35.157Z,973.34
2017-12-21T17:55:35.161Z,973.35
2017-12-21T17:56:35.159Z,973.34
2017-12-21T17:57:35.164Z,973.36
2017-12-21T17:58:35.167Z,973.36
2017-12-21T17:59:35.170Z,973.38
2017-12-21T18:00:35.181Z,973.36
2017-12-21T18:01:35.174Z,973.38
2017-12-21T18:02:35.184Z,973.38
2017-12-21T18:03:35.181Z,973.40
2017-12-21T18:04:35.183Z,973.44
2017-12-21T18:05:35.183Z,973.40
2017-12-21T18:06:35.187Z,973.44
2017-12-21T18:07:35.189Z,973.43
2017-12-21T18:08:35.191Z,973.52
2017-12-21T18:09:35.194Z,973.56
2017-12-21T18:10:35.196Z,973.55
2017-12-21T18:11:35.199Z,973.52
2017-12-21T18:12:35.200Z,973.48
2017-12-21T18:13:35.205Z,973.52
2017-12-21T18:14:35.205Z,973.55
2017-12-21T18:15:35.208Z,973.58
2017-12-21T18:16:35.217Z,973.60
2017-12-21T18:17:35.218Z,973.55
2017-12-21T18:18:35.219Z,973.59
2017-12-21T18:19:35.219Z,973.65
2017-12-21T18:20:35.223Z,973.63
2017-12-21T18:21:35.224Z,973.64
2017-12-21T18:22:35.229Z,973.62
2017-12-21T18:23:35.231Z,973.68
2017-12-21T18:24:35.232Z,973.67
2017-12-21T18:25:35.238Z,973.67
2017-12-21T18:26:35.239Z,973.64
2017-12-21T18:27:35.239Z,973.62
2017-12-21T18:28:35.244Z,973.61
2017-12-21T18:29:35.246Z,973.63
2017-12-21T18:30:35.253Z,973.60
2017-12-21T18:31:35.251Z,973.61
2017-12-21T18:32:35.255Z,973.61
2017-12-21T18:33:35.258Z,973.64
2017-12-21T18:34:35.261Z,973.65
2017-12-21T18:35:35.263Z,973.67
2017-12-21T18:36:35.265Z,973.67
2017-12-21T18:37:35.269Z,973.69
2017-12-21T18:38:35.273Z,973.70
2017-12-21T18:39:35.278Z,973.70
2017-12-21T18:40:35.279Z,973.69
2017-12-21T18:41:35.279Z,973.72
2017-12-21T18:42:35.287Z,973.71
2017-12-21T18:43:35.285Z,973.76
2017-12-21T18:44:35.290Z,973.74
2017-12-21T18:45:35.299Z,973.74
2017-12-21T18:46:35.294Z,973.76
2017-12-21T18:47:35.302Z,973.78
2017-12-21T18:48:35.300Z,973.78
2017-12-21T18:49:35.304Z,973.80
2017-12-21T18:50:35.313Z,973.79
2017-12-21T18:51:35.314Z,973.82
2017-12-21T18:52:35.310Z,973.84
2017-12-21T18:53:35.314Z,973.82
2017-12-21T18:54:35.316Z,973.87
2017-12-21T18:55:35.321Z,973.87
2017-12-21T18:56:35.322Z,973.91
2017-12-21T18:57:35.325Z,973.85
2017-12-21T18:58:35.333Z,973.89
2017-12-21T18:59:35.338Z,973.88
2017-12-21T19:00:35.335Z,973.91
2017-12-21T19:01:35.336Z,973.89
2017-12-21T19:02:35.342Z,973.91
2017-12-21T19:03:35.343Z,973.93
2017-12-21T19:04:35.346Z,973.93
2017-12-21T19:05:35.348Z,973.88
2017-12-21T19:06:35.350Z,973.90
2017-12-21T19:07:35.352Z,973.89
2017-12-21T19:08:35.358Z,973.90
2017-12-21T19:09:35.361Z,973.91
2017-12-21T19:10:35.361Z,973.92
2017-12-21T19:11:35.369Z,973.92
2017-12-21T19:12:35.367Z,973.95
2017-12-21T19:13:35.368Z,973.99
2017-12-21T19:14:35.372Z,974.06
2017-12-21T19:15:35.377Z,974.01
2017-12-21T19:16:35.382Z,974.07
2017-12-21T19:17:35.380Z,974.10
2017-12-21T19:18:35.384Z,974.07
2017-12-21T19:19:35.386Z,974.11
2017-12-21T19:20:35.390Z,974.11
2017-12-21T19:21:35.392Z,974.18
2017-12-21T19:22:35.396Z,974.19
2017-12-21T19:23:35.397Z,974.19
2017-12-21T19:24:35.403Z,974.18
2017-12-21T19:25:35.404Z,974.21
2017-12-21T19:26:35.415Z,974.13
2017-12-21T19:27:35.418Z,974.15
2017-12-21T19:28:35.416Z,974.09
2017-12-21T19:29:35.419Z,974.08
2017-12-21T19:30:35.416Z,974.10
2017-12-21T19:31:35.422Z,974.08
2017-12-21T19:32:35.423Z,974.08
2017-12-21T19:33:35.425Z,974.09
2017-12-21T19:34:35.429Z,974.05
2017-12-21T19:35:35.431Z,974.04
2017-12-21T19:36:35.433Z,974.03
2017-12-21T19:37:35.437Z,974.00
2017-12-21T19:38:35.441Z,974.02
2017-12-21T19:39:35.442Z,974.00
2017-12-21T19:40:35.445Z,974.01
2017-12-21T19:41:35.447Z,974.03
2017-12-21T19:42:35.459Z,973.99
2017-12-21T19:43:35.454Z,974.02
2017-12-21T19:44:35.468Z,974.01
2017-12-21T19:45:35.462Z,974.04
2017-12-21T19:46:35.463Z,974.07
2017-12-21T19:47:35.465Z,974.08
2017-12-21T19:48:35.468Z,974.18
2017-12-21T19:49:35.472Z,974.18
2017-12-21T19:50:35.473Z,974.19
2017-12-21T19:51:35.476Z,974.20
2017-12-21T19:52:35.478Z,974.19
2017-12-21T19:53:35.480Z,974.18
2017-12-21T19:54:35.483Z,974.19
2017-12-21T19:55:35.486Z,974.18
2017-12-21T19:56:35.489Z,974.18
2017-12-21T19:57:35.491Z,974.22
2017-12-21T19:58:35.495Z,974.24
2017-12-21T19:59:35.497Z,974.28
2017-12-21T20:00:35.500Z,974.25
2017-12-21T20:01:35.500Z,974.23
2017-12-21T20:02:35.506Z,974.25
2017-12-21T20:03:35.507Z,974.19
2017-12-21T20:04:35.510Z,974.20
2017-12-21T20:05:35.514Z,974.20
2017-12-21T20:06:35.516Z,974.18
2017-12-21T20:07:35.519Z,974.19
2017-12-21T20:08:35.520Z,974.20
2017-12-21T20:09:35.524Z,974.15
2017-12-21T20:10:35.527Z,974.21
2017-12-21T20:11:35.529Z,974.22
2017-12-21T20:12:35.532Z,974.20
2017-12-21T20:13:35.535Z,974.17
2017-12-21T20:14:35.539Z,974.18
2017-12-21T20:15:35.540Z,974.14
2017-12-21T20:16:35.543Z,974.16
2017-12-21T20:17:35.547Z,974.17
2017-12-21T20:18:35.549Z,974.22
2017-12-21T20:19:35.552Z,974.20
2017-12-21T20:20:35.555Z,974.19
2017-12-21T20:21:35.558Z,974.13
2017-12-21T20:22:35.568Z,974.09
2017-12-21T20:23:35.570Z,974.11
2017-12-21T20:24:35.574Z,974.11
2017-12-21T20:25:35.571Z,974.15
2017-12-21T20:26:35.588Z,974.18
2017-12-21T20:27:35.589Z,974.16
2017-12-21T20:28:35.591Z,974.16
2017-12-21T20:29:35.592Z,974.15
2017-12-21T20:30:35.592Z,974.18
2017-12-21T20:31:35.590Z,974.22
2017-12-21T20:32:35.591Z,974.25
2017-12-21T20:33:35.594Z,974.34
2017-12-21T20:34:35.595Z,974.33
2017-12-21T20:35:35.600Z,974.37
2017-12-21T20:36:35.600Z,974.39
2017-12-21T20:37:35.606Z,974.43
2017-12-21T20:38:35.608Z,974.45
2017-12-21T20:39:35.609Z,974.52
2017-12-21T20:40:35.613Z,974.49
2017-12-21T20:41:35.615Z,974.51
2017-12-21T20:42:35.618Z,974.53
2017-12-21T20:43:35.620Z,974.49
2017-12-21T20:44:35.623Z,974.51
2017-12-21T20:45:35.626Z,974.53
2017-12-21T20:46:35.629Z,974.54
2017-12-21T20:47:35.631Z,974.52
2017-12-21T20:48:35.634Z,974.51
2017-12-21T20:49:35.637Z,974.53
2017-12-21T20:50:35.644Z,974.56
2017-12-21T20:51:35.647Z,974.56
2017-12-21T20:52:35.656Z,974.55
2017-12-21T20:53:35.647Z,974.55
2017-12-21T20:54:35.651Z,974.55
2017-12-21T20:55:35.652Z,974.55
2017-12-21T20:56:35.656Z,974.52
2017-12-21T20:57:35.660Z,974.50
2017-12-21T20:58:35.690Z,974.52
2017-12-21T20:59:35.671Z,974.56
2017-12-21T21:00:35.671Z,974.60
2017-12-21T21:01:35.671Z,974.55
2017-12-21T21:02:35.674Z,974.57
2017-12-21T21:03:35.675Z,974.56
2017-12-21T21:04:35.676Z,974.57
2017-12-21T21:05:35.681Z,974.56
2017-12-21T21:06:35.682Z,974.51
2017-12-21T21:07:35.684Z,974.56
2017-12-21T21:08:35.687Z,974.52
2017-12-21T21:09:35.690Z,974.52
2017-12-21T21:10:35.693Z,974.48
2017-12-21T21:11:35.695Z,974.46
2017-12-21T21:12:35.698Z,974.44
2017-12-21T21:13:35.701Z,974.45
2017-12-21T21:14:35.704Z,974.44
2017-12-21T21:15:35.706Z,974.43
2017-12-21T21:16:35.713Z,974.37
2017-12-21T21:17:35.713Z,974.33
2017-12-21T21:18:35.715Z,974.33
2017-12-21T21:19:35.717Z,974.28
2017-12-21T21:20:35.721Z,974.29
2017-12-21T21:21:35.724Z,974.25
2017-12-21T21:22:35.726Z,974.27
2017-12-21T21:23:35.730Z,974.29
2017-12-21T21:24:35.732Z,974.29
2017-12-21T21:25:35.734Z,974.27
2017-12-21T21:26:35.737Z,974.29
2017-12-21T21:27:35.739Z,974.30
2017-12-21T21:28:35.742Z,974.33
2017-12-21T21:29:35.745Z,974.32
2017-12-21T21:30:35.748Z,974.34
2017-12-21T21:31:35.765Z,974.34
2017-12-21T21:32:35.753Z,974.34
2017-12-21T21:33:35.757Z,974.34
2017-12-21T21:34:35.759Z,974.33
2017-12-21T21:35:35.761Z,974.36
2017-12-21T21:36:35.765Z,974.38
2017-12-21T21:37:35.766Z,974.37
2017-12-21T21:38:35.769Z,974.38
2017-12-21T21:39:35.772Z,974.42
2017-12-21T21:40:35.775Z,974.43
2017-12-21T21:41:35.778Z,974.40
2017-12-21T21:42:35.795Z,974.41
2017-12-21T21:43:35.782Z,974.41
2017-12-21T21:44:35.785Z,974.47
2017-12-21T21:45:35.791Z,974.42
2017-12-21T21:46:35.791Z,974.47
2017-12-21T21:47:35.793Z,974.44
2017-12-21T21:48:35.796Z,974.46
2017-12-21T21:49:35.799Z,974.49
2017-12-21T21:50:35.802Z,974.46
2017-12-21T21:51:35.804Z,974.44
2017-12-21T21:52:35.807Z,974.44
2017-12-21T21:53:35.811Z,974.32
2017-12-21T21:54:35.814Z,974.27
2017-12-21T21:55:35.817Z,974.16
2017-12-21T21:56:35.819Z,974.10
2017-12-21T21:57:35.822Z,974.04
2017-12-21T21:58:35.826Z,974.02
2017-12-21T21:59:35.826Z,974.03
2017-12-21T22:00:35.830Z,974.04
2017-12-21T22:01:35.834Z,974.08
2017-12-21T22:02:35.838Z,974.07
2017-12-21T22:03:35.838Z,974.08
2017-12-21T22:04:35.846Z,974.06
2017-12-21T22:05:35.846Z,974.06
2017-12-21T22:06:35.847Z,974.10
2017-12-21T22:07:35.851Z,974.09
2017-12-21T22:08:35.852Z,974.09
2017-12-21T22:09:35.855Z,974.06
2017-12-21T22:10:35.859Z,974.07
2017-12-21T22:11:35.861Z,974.07
2017-12-21T22:12:35.891Z,974.09
2017-12-21T22:13:35.866Z,974.05
2017-12-21T22:14:35.869Z,974.06
2017-12-21T22:15:35.870Z,974.11
2017-12-21T22:16:35.879Z,974.08
2017-12-21T22:17:35.877Z,974.11
2017-12-21T22:18:35.879Z,974.10
2017-12-21T22:19:35.881Z,974.14
2017-12-21T22:20:35.889Z,974.12
2017-12-21T22:21:35.887Z,974.10
2017-12-21T22:22:35.890Z,974.10
2017-12-21T22:23:35.894Z,974.13
2017-12-21T22:24:35.896Z,974.14
2017-12-21T22:25:35.898Z,974.11
2017-12-21T22:26:35.902Z,974.10
2017-12-21T22:27:35.903Z,974.10
2017-12-21T22:28:35.906Z,974.13
2017-12-21T22:29:35.911Z,974.10
2017-12-21T22:30:35.912Z,974.10
2017-12-21T22:31:35.915Z,974.09
2017-12-21T22:32:35.924Z,974.08
2017-12-21T22:33:35.922Z,974.06
2017-12-21T22:34:35.923Z,974.04
2017-12-21T22:35:35.927Z,974.06
2017-12-21T22:36:35.929Z,974.04
2017-12-21T22:37:35.933Z,974.03
2017-12-21T22:38:35.935Z,974.02
2017-12-21T22:39:35.937Z,974.04
2017-12-21T22:40:35.941Z,974.01
2017-12-21T22:41:35.942Z,973.99
2017-12-21T22:42:35.946Z,974.00
2017-12-21T22:43:35.948Z,974.02
2017-12-21T22:44:35.950Z,973.97
2017-12-21T22:45:35.953Z,973.95
2017-12-21T22:46:35.958Z,973.95
2017-12-21T22:47:35.959Z,973.92
2017-12-21T22:48:35.963Z,973.91
2017-12-21T22:49:35.968Z,973.90
2017-12-21T22:50:35.969Z,973.93
2017-12-21T22:51:35.973Z,973.92
2017-12-21T22:52:35.972Z,973.91
2017-12-21T22:53:35.973Z,973.92
2017-12-21T22:54:35.982Z,973.90
2017-12-21T22:55:35.980Z,973.90
2017-12-21T22:56:35.987Z,973.84
2017-12-21T22:57:35.986Z,973.85
2017-12-21T22:58:35.989Z,973.81
2017-12-21T22:59:35.992Z,973.79
2017-12-21T23:00:35.994Z,973.75
2017-12-21T23:01:35.997Z,973.70
2017-12-21T23:02:36.000Z,973.67
2017-12-21T23:03:36.001Z,973.74
2017-12-21T23:04:36.007Z,973.71
2017-12-21T23:05:36.010Z,973.73
2017-12-21T23:06:36.011Z,973.77
2017-12-21T23:07:36.012Z,973.75
2017-12-21T23:08:36.014Z,973.80
2017-12-21T23:09:36.020Z,973.77
2017-12-21T23:10:36.020Z,973.76
2017-12-21T23:11:36.024Z,973.79
2017-12-21T23:12:36.025Z,973.75
2017-12-21T23:13:36.028Z,973.74
2017-12-21T23:14:36.031Z,973.72
2017-12-21T23:15:36.033Z,973.66
2017-12-21T23:16:36.036Z,973.64
2017-12-21T23:17:36.038Z,973.61
2017-12-21T23:18:36.041Z,973.56
2017-12-21T23:19:36.043Z,973.57
2017-12-21T23:20:36.046Z,973.57
2017-12-21T23:21:36.053Z,973.51
2017-12-21T23:22:36.051Z,973.53
2017-12-21T23:23:36.054Z,973.52
2017-12-21T23:24:36.056Z,973.51
2017-12-21T23:25:36.060Z,973.46
2017-12-21T23:26:36.062Z,973.45
2017-12-21T23:27:36.064Z,973.44
2017-12-21T23:28:36.066Z,973.42
2017-12-21T23:29:36.067Z,973.37
2017-12-21T23:30:36.071Z,973.34
2017-12-21T23:31:36.077Z,973.37
2017-12-21T23:32:36.075Z,973.32
2017-12-21T23:33:36.080Z,973.29
2017-12-21T23:34:36.082Z,973.30
2017-12-21T23:35:36.083Z,973.27
2017-12-21T23:36:36.088Z,973.25
2017-12-21T23:37:36.089Z,973.24
2017-12-21T23:38:36.092Z,973.24
2017-12-21T23:39:36.094Z,973.21
2017-12-21T23:40:36.097Z,973.18
2017-12-21T23:41:36.099Z,973.12
2017-12-21T23:42:36.109Z,973.08
2017-12-21T23:43:36.105Z,973.09
2017-12-21T23:44:36.108Z,973.09
2017-12-21T23:45:36.112Z,973.07
2017-12-21T23:46:36.114Z,973.07
2017-12-21T23:47:36.114Z,973.07
2017-12-21T23:48:36.117Z,973.04
2017-12-21T23:49:36.121Z,973.01
2017-12-21T23:50:36.123Z,973.04
2017-12-21T23:51:36.126Z,973.01
2017-12-21T23:52:36.127Z,973.04
2017-12-21T23:53:36.130Z,973.02
2017-12-21T23:54:36.134Z,973.07
2017-12-21T23:55:36.134Z,973.09
2017-12-21T23:56:36.137Z,973.09
2017-12-21T23:57:36.140Z,973.08
2017-12-21T23:58:36.142Z,973.07
2017-12-21T23:59:36.144Z,973.07
